Terminal Aerodrome Forecast
Issued by NWS North Platte, NE

Home | Current Version | Previous Version | Text Only | Print | Product List | Glossary On
Versions: 1 2 3 4 5 6 7 8 9 10 11 12 13 14 15 16 17 18 19 20 21 22 23 24 25 26 27 28 29
000
FTUS43 KLBF 290459 AAB
TAFVTN
TAF AMD
KVTN 290459Z 2905/2924 VRB05KT P6SM SCT110 BKN200
     FM290800 VRB03KT 3SM BR SCT015 BKN200
     FM291400 18004KT P6SM FEW015 BKN150
     FM291800 12006KT P6SM SCT050 SCT100 BKN200
     FM292100 12008KT P6SM BKN050 BKN100=

USA.gov is the U.S. government's official web portal to all federal, state and local government web resources and services.